Oceanside, Washington
Current Conditions -  °F | °C
As of 1:55 PM on Thursday 23 Oct 2014 (Local Time) from KAST Reporting Station
Scattered Clouds Scattered Clouds  
Wind Chill: 60°   Ceiling: Unl
Heat Index: 60°   Visibility: 10mi
Dew Point: 46°   Wind: 13mph
Humidity: 60%   Direction: 230°SW
Pressure: 29.86"   Gusts: 23mph
Location:  46.3832°N, 124.042°W
Report Text: KAST 232055Z AUTO 23011G20KT 10SM SCT060 16/08 A2986 RMK AO2 SLP110 T01560078 53015
Loading
Personal Weather Stations






























Interactive Weather Map New forecast layout! Learn more

10-Day Weather Forecast

Advertisements
Track Severe Weather on mobile